createdAt,value
2023-04-08T00:01:05.905Z,82.18
2023-04-08T00:03:33.216Z,84.65
2023-04-08T00:06:02.618Z,85.97
2023-04-08T00:08:30.634Z,85.85
2023-04-08T00:10:57.783Z,84.26
2023-04-08T00:13:24.829Z,85.08
2023-04-08T00:15:51.902Z,84.83
2023-04-08T00:18:19.148Z,86.63
2023-04-08T00:20:46.456Z,84.01
2023-04-08T00:23:13.526Z,86.42
2023-04-08T00:25:40.779Z,84.64
2023-04-08T00:28:07.974Z,84.68
2023-04-08T00:30:35.235Z,84.53
2023-04-08T00:33:02.624Z,85.59
2023-04-08T00:35:29.765Z,85.82
2023-04-08T00:37:56.898Z,85.23
2023-04-08T00:40:26.118Z,85.10
2023-04-08T00:42:53.230Z,83.72
2023-04-08T00:45:20.401Z,83.66
2023-04-08T00:47:52.404Z,83.69
2023-04-08T00:50:20.405Z,83.81
2023-04-08T00:52:47.600Z,82.68
2023-04-08T00:55:14.678Z,85.26
2023-04-08T00:57:42.403Z,85.41
2023-04-08T01:00:10.805Z,86.25
2023-04-08T01:03:08.448Z,86.35
2023-04-08T01:06:21.814Z,85.32
2023-04-08T01:08:51.702Z,84.88
2023-04-08T01:11:20.163Z,86.23
2023-04-08T01:13:49.491Z,86.11
2023-04-08T01:16:18.273Z,86.00
2023-04-08T01:18:46.325Z,88.08
2023-04-08T01:21:16.733Z,87.61
2023-04-08T01:24:26.993Z,86.40
2023-04-08T01:26:57.253Z,86.01
2023-04-08T01:29:26.242Z,85.68
2023-04-08T01:31:55.200Z,84.52
2023-04-08T01:34:24.370Z,84.35
2023-04-08T01:36:53.626Z,85.69
2023-04-08T01:39:21.642Z,85.77
2023-04-08T01:41:51.269Z,85.84
2023-04-08T01:44:20.797Z,86.08
2023-04-08T01:46:49.389Z,85.92
2023-04-08T01:49:17.308Z,86.27
2023-04-08T01:51:46.394Z,83.72
2023-04-08T01:54:13.502Z,85.34
2023-04-08T01:56:44.590Z,86.11
2023-04-08T01:59:17.238Z,84.61
2023-04-08T02:01:47.597Z,84.38
2023-04-08T02:04:15.046Z,86.28
2023-04-08T02:06:42.571Z,85.89
2023-04-08T02:09:09.650Z,87.31
2023-04-08T02:11:38.988Z,86.96
2023-04-08T02:14:06.361Z,86.59
2023-04-08T02:17:08.733Z,85.73
2023-04-08T02:20:14.939Z,87.27
2023-04-08T02:22:52.741Z,87.50
2023-04-08T02:25:25.752Z,87.42
2023-04-08T02:27:54.563Z,87.09
2023-04-08T02:30:24.933Z,87.32
2023-04-08T02:32:53.782Z,86.54
2023-04-08T02:35:21.485Z,86.77
2023-04-08T02:37:48.871Z,87.20
2023-04-08T02:40:35.752Z,86.66
2023-04-08T02:43:02.869Z,84.65
2023-04-08T02:45:44.237Z,85.57
2023-04-08T02:48:11.933Z,85.75
2023-04-08T02:50:40.618Z,86.57
2023-04-08T02:53:09.812Z,84.61
2023-04-08T02:55:36.938Z,84.99
2023-04-08T02:58:04.021Z,85.96
2023-04-08T03:00:31.335Z,85.64
2023-04-08T03:02:58.513Z,85.20
2023-04-08T03:05:26.944Z,85.50
2023-04-08T03:07:54.095Z,87.06
2023-04-08T03:10:21.234Z,85.53
2023-04-08T03:12:48.609Z,86.58
2023-04-08T03:15:15.937Z,87.23
2023-04-08T03:17:43.304Z,86.62
2023-04-08T03:20:11.272Z,87.97
2023-04-08T03:22:38.380Z,86.56
2023-04-08T03:25:06.307Z,86.81
2023-04-08T03:27:33.387Z,87.14
2023-04-08T03:30:00.841Z,87.04
2023-04-08T03:32:28.185Z,86.86
2023-04-08T03:34:55.281Z,88.04
2023-04-08T03:37:22.415Z,87.74
2023-04-08T03:39:53.307Z,86.47
2023-04-08T03:42:20.414Z,86.28
2023-04-08T03:44:47.553Z,86.72
2023-04-08T03:47:14.607Z,87.77
2023-04-08T03:49:41.708Z,86.19
2023-04-08T03:52:08.793Z,86.65
2023-04-08T03:54:35.880Z,87.39
2023-04-08T03:57:02.958Z,88.03
2023-04-08T03:59:30.177Z,87.91
2023-04-08T04:01:57.243Z,87.38
2023-04-08T04:04:25.416Z,86.74
2023-04-08T04:06:52.580Z,86.00
2023-04-08T04:09:19.772Z,87.11
2023-04-08T04:11:46.815Z,88.16
2023-04-08T04:14:13.891Z,84.53
2023-04-08T04:16:41.206Z,86.94
2023-04-08T04:19:08.360Z,86.19
2023-04-08T04:21:35.428Z,86.49
2023-04-08T04:24:02.532Z,86.94
2023-04-08T04:26:29.621Z,86.69
2023-04-08T04:28:56.739Z,86.44
2023-04-08T04:31:27.991Z,87.07
2023-04-08T04:33:55.199Z,85.32
2023-04-08T04:36:24.313Z,87.60
2023-04-08T04:38:52.029Z,86.76
2023-04-08T04:41:19.415Z,87.44
2023-04-08T04:43:46.894Z,86.86
2023-04-08T04:46:14.010Z,87.50
2023-04-08T04:48:41.584Z,86.83
2023-04-08T04:51:08.709Z,87.70
2023-04-08T04:53:35.855Z,89.25
2023-04-08T04:56:02.938Z,87.54
2023-04-08T04:58:30.711Z,88.11
2023-04-08T05:00:58.032Z,86.69
2023-04-08T05:03:25.354Z,86.63
2023-04-08T05:05:54.678Z,87.40
2023-04-08T05:08:22.378Z,88.34
2023-04-08T05:10:52.613Z,88.36
2023-04-08T05:13:19.787Z,88.74
2023-04-08T05:15:48.363Z,87.30
2023-04-08T05:18:15.521Z,84.78
2023-04-08T05:20:42.592Z,87.12
2023-04-08T05:23:09.768Z,86.50
2023-04-08T05:25:36.970Z,85.99
2023-04-08T05:28:04.613Z,84.99
2023-04-08T05:30:31.884Z,87.25
2023-04-08T05:33:00.540Z,87.93
2023-04-08T05:35:29.171Z,86.19
2023-04-08T05:37:56.329Z,87.07
2023-04-08T05:40:23.741Z,87.88
2023-04-08T05:42:52.865Z,88.28
2023-04-08T05:45:20.111Z,87.05
2023-04-08T05:47:49.459Z,86.78
2023-04-08T05:50:16.773Z,87.17
2023-04-08T05:52:45.372Z,86.80
2023-04-08T05:55:14.640Z,86.68
2023-04-08T05:57:42.099Z,87.83
2023-04-08T06:00:11.304Z,88.85
2023-04-08T06:02:39.152Z,87.92
2023-04-08T06:05:11.085Z,87.78
2023-04-08T06:07:40.317Z,87.45
2023-04-08T06:10:09.034Z,85.86
2023-04-08T06:12:38.656Z,84.59
2023-04-08T06:15:09.954Z,85.54
2023-04-08T06:17:38.608Z,87.51
2023-04-08T06:20:07.032Z,87.42
2023-04-08T06:22:38.566Z,88.28
2023-04-08T06:25:06.877Z,85.77
2023-04-08T06:27:34.057Z,86.75
2023-04-08T06:30:01.354Z,87.30
2023-04-08T06:32:28.429Z,86.48
2023-04-08T06:34:55.514Z,86.30
2023-04-08T06:37:22.616Z,85.37
2023-04-08T06:39:49.721Z,85.32
2023-04-08T06:42:16.749Z,85.15
2023-04-08T06:44:43.836Z,86.23
2023-04-08T06:47:11.000Z,85.72
2023-04-08T06:49:38.090Z,85.41
2023-04-08T06:52:06.757Z,86.17
2023-04-08T06:54:33.825Z,85.27
2023-04-08T06:57:01.166Z,86.61
2023-04-08T06:59:28.244Z,84.76
2023-04-08T07:01:55.355Z,84.76
2023-04-08T07:04:22.616Z,85.97
2023-04-08T07:06:50.205Z,83.75
2023-04-08T07:09:17.231Z,84.45
2023-04-08T07:11:44.458Z,84.39
2023-04-08T07:14:12.708Z,84.51
2023-04-08T07:16:39.832Z,84.42
2023-04-08T07:19:06.896Z,85.21
2023-04-08T07:21:34.598Z,82.39
2023-04-08T07:24:01.617Z,85.35
2023-04-08T07:26:28.774Z,84.80
2023-04-08T07:28:55.902Z,83.72
2023-04-08T07:31:24.480Z,85.04
2023-04-08T07:33:51.836Z,84.05
2023-04-08T07:36:18.925Z,83.79
2023-04-08T07:38:46.130Z,84.56
2023-04-08T07:41:13.343Z,83.94
2023-04-08T07:43:40.633Z,83.48
2023-04-08T07:46:09.138Z,84.86
2023-04-08T07:48:36.651Z,84.97
2023-04-08T07:51:08.196Z,83.57
2023-04-08T07:53:36.810Z,84.68
2023-04-08T07:56:10.295Z,83.38
2023-04-08T07:58:42.926Z,82.91
2023-04-08T08:01:19.738Z,81.34
2023-04-08T08:03:47.671Z,82.03
2023-04-08T08:06:15.743Z,82.51
2023-04-08T08:08:43.226Z,81.50
2023-04-08T08:11:10.478Z,81.42
2023-04-08T08:13:37.643Z,82.04
2023-04-08T08:16:08.670Z,82.78
2023-04-08T08:18:36.776Z,81.49
2023-04-08T08:21:04.141Z,82.07
2023-04-08T08:23:34.175Z,82.67
2023-04-08T08:26:04.026Z,82.23
2023-04-08T08:28:31.433Z,82.08
2023-04-08T08:30:59.555Z,82.19
2023-04-08T08:33:28.873Z,83.16
2023-04-08T08:35:57.910Z,81.72
2023-04-08T08:38:26.085Z,80.65
2023-04-08T08:41:00.774Z,81.99
2023-04-08T08:43:29.829Z,81.16
2023-04-08T08:45:56.995Z,82.93
2023-04-08T08:48:24.187Z,83.71
2023-04-08T08:50:51.565Z,83.60
2023-04-08T08:53:20.554Z,81.55
2023-04-08T08:58:19.068Z,81.98
2023-04-08T09:00:46.349Z,81.64
2023-04-08T09:03:27.625Z,81.97
2023-04-08T09:06:03.974Z,81.80
2023-04-08T09:08:40.381Z,81.86
2023-04-08T09:11:24.130Z,79.73
2023-04-08T09:13:51.443Z,80.55
2023-04-08T09:16:20.293Z,80.29
2023-04-08T09:18:49.417Z,80.07
2023-04-08T09:21:18.663Z,80.04
2023-04-08T09:23:49.940Z,78.13
2023-04-08T09:26:24.809Z,80.06
2023-04-08T09:29:25.440Z,79.16
2023-04-08T09:32:01.263Z,77.98
2023-04-08T09:34:32.285Z,77.40
2023-04-08T09:36:59.403Z,76.20
2023-04-08T09:39:26.503Z,74.08
2023-04-08T09:41:58.322Z,75.38
2023-04-08T09:44:29.175Z,76.36
2023-04-08T09:47:24.075Z,75.34
2023-04-08T09:50:05.630Z,76.16
2023-04-08T09:52:46.925Z,76.85
2023-04-08T09:55:17.644Z,77.28
2023-04-08T09:57:51.740Z,75.13
2023-04-08T10:00:19.855Z,74.38
2023-04-08T10:03:19.700Z,74.44
2023-04-08T10:05:48.752Z,74.69
2023-04-08T10:08:16.803Z,72.14
2023-04-08T10:10:45.612Z,74.24
2023-04-08T10:13:16.606Z,71.36
2023-04-08T10:15:47.994Z,73.66
2023-04-08T10:18:18.144Z,74.02
2023-04-08T10:20:49.292Z,72.00
2023-04-08T10:23:18.628Z,72.68
2023-04-08T10:25:49.353Z,74.53
2023-04-08T10:28:19.307Z,74.13
2023-04-08T10:30:55.947Z,73.46
2023-04-08T10:33:40.995Z,71.40
2023-04-08T10:36:15.215Z,69.79
2023-04-08T10:38:47.200Z,72.39
2023-04-08T10:41:34.202Z,71.98
2023-04-08T10:44:04.281Z,68.54
2023-04-08T10:46:38.569Z,69.77
2023-04-08T10:49:05.752Z,69.82
2023-04-08T10:51:36.762Z,69.75
2023-04-08T10:54:18.614Z,69.66
2023-04-08T10:56:53.696Z,68.16
2023-04-08T10:59:33.005Z,68.74
2023-04-08T11:02:01.439Z,67.01
2023-04-08T11:04:29.047Z,67.94
2023-04-08T11:06:56.313Z,69.76
2023-04-08T11:09:23.394Z,66.77
2023-04-08T11:11:52.324Z,64.10
2023-04-08T11:14:21.877Z,67.19
2023-04-08T11:16:49.141Z,65.45
2023-04-08T11:19:16.725Z,65.79
2023-04-08T11:21:43.945Z,67.15
2023-04-08T11:24:13.289Z,65.77
2023-04-08T11:26:44.902Z,66.84
2023-04-08T11:29:14.413Z,65.15
2023-04-08T11:31:43.873Z,65.41
2023-04-08T11:34:11.351Z,64.64
2023-04-08T11:36:42.756Z,66.26
2023-04-08T11:39:12.004Z,64.75
2023-04-08T11:41:43.368Z,67.34
2023-04-08T11:44:10.669Z,63.86
2023-04-08T11:46:55.062Z,66.07
2023-04-08T11:49:22.264Z,62.80
2023-04-08T11:52:00.307Z,66.42
2023-04-08T11:54:33.013Z,64.83
2023-04-08T11:57:01.011Z,67.62
2023-04-08T11:59:29.517Z,65.30
2023-04-08T12:01:57.037Z,64.66
2023-04-08T12:04:24.165Z,65.00
2023-04-08T12:06:52.360Z,64.81
2023-04-08T12:09:19.878Z,64.36
2023-04-08T12:11:47.105Z,64.70
2023-04-08T12:14:15.675Z,67.74
2023-04-08T12:16:42.976Z,64.88
2023-04-08T12:19:10.289Z,65.02
2023-04-08T12:21:38.368Z,63.05
2023-04-08T12:24:06.015Z,61.76
2023-04-08T12:26:33.525Z,62.62
2023-04-08T12:29:00.728Z,63.94
2023-04-08T12:31:28.387Z,62.82
2023-04-08T12:33:55.620Z,61.75
2023-04-08T12:36:22.891Z,63.83
2023-04-08T12:38:50.307Z,63.48
2023-04-08T12:41:17.809Z,57.01
2023-04-08T12:43:45.179Z,58.03
2023-04-08T12:46:12.836Z,61.23
2023-04-08T12:48:40.856Z,59.97
2023-04-08T12:51:10.870Z,57.43
2023-04-08T12:53:38.055Z,51.68
2023-04-08T12:56:05.825Z,49.19
2023-04-08T12:58:33.182Z,48.93
2023-04-08T13:01:00.306Z,49.69
2023-04-08T13:03:30.367Z,56.71
2023-04-08T13:05:59.131Z,53.71
2023-04-08T13:08:26.450Z,57.45
2023-04-08T13:10:54.749Z,56.99
2023-04-08T13:13:22.000Z,54.62
2023-04-08T13:15:49.454Z,55.64
2023-04-08T13:18:16.613Z,54.29
2023-04-08T13:20:45.691Z,53.05
2023-04-08T13:23:14.465Z,51.97
2023-04-08T13:25:41.840Z,51.73
2023-04-08T13:28:08.873Z,54.39
2023-04-08T13:30:37.150Z,52.68
2023-04-08T13:33:04.475Z,53.75
2023-04-08T13:35:31.827Z,48.75
2023-04-08T13:37:58.892Z,46.11
2023-04-08T13:40:28.340Z,51.58
2023-04-08T13:42:55.824Z,47.71
2023-04-08T13:45:23.120Z,53.05
2023-04-08T13:47:50.354Z,53.85
2023-04-08T13:50:17.608Z,56.11
2023-04-08T13:52:44.672Z,53.18
2023-04-08T13:55:14.483Z,52.81
2023-04-08T13:57:44.712Z,52.58
2023-04-08T14:00:12.921Z,50.13
2023-04-08T14:02:40.516Z,49.35
2023-04-08T14:05:08.379Z,49.47
2023-04-08T14:07:37.740Z,48.23
2023-04-08T14:10:05.777Z,48.54
2023-04-08T14:12:32.985Z,49.38
2023-04-08T14:15:00.267Z,51.00
2023-04-08T14:17:27.414Z,46.84
2023-04-08T14:19:54.611Z,50.22
2023-04-08T14:22:21.660Z,48.43
2023-04-08T14:24:51.699Z,44.59
2023-04-08T14:27:18.870Z,46.73
2023-04-08T14:29:46.072Z,44.78
2023-04-08T14:32:13.188Z,51.88
2023-04-08T14:34:41.974Z,51.16
2023-04-08T14:37:12.737Z,53.85
2023-04-08T14:39:39.839Z,52.88
2023-04-08T14:42:06.877Z,51.11
2023-04-08T14:44:36.743Z,52.65
2023-04-08T14:47:06.529Z,49.98
2023-04-08T14:49:33.648Z,46.84
2023-04-08T14:52:01.484Z,48.47
2023-04-08T14:54:28.531Z,48.23
2023-04-08T14:56:56.033Z,47.83
2023-04-08T14:59:23.170Z,47.69
2023-04-08T15:01:50.431Z,44.94
2023-04-08T15:04:17.608Z,46.83
2023-04-08T15:06:44.779Z,44.46
2023-04-08T15:09:17.978Z,46.30
2023-04-08T15:11:49.479Z,50.37
2023-04-08T15:14:16.510Z,54.25
2023-04-08T15:16:45.243Z,51.64
2023-04-08T15:19:12.413Z,53.36
2023-04-08T15:21:39.643Z,53.32
2023-04-08T15:24:06.768Z,52.32
2023-04-08T15:26:34.083Z,51.25
2023-04-08T15:29:01.447Z,49.10
2023-04-08T15:31:28.546Z,46.03
2023-04-08T15:33:56.273Z,46.12
2023-04-08T15:36:23.303Z,45.37
2023-04-08T15:38:50.557Z,49.74
2023-04-08T15:41:23.818Z,48.63
2023-04-08T15:43:53.034Z,49.05
2023-04-08T15:46:21.378Z,48.56
2023-04-08T15:48:49.671Z,47.33
2023-04-08T15:51:17.472Z,45.16
2023-04-08T15:53:44.826Z,49.01
2023-04-08T15:56:16.468Z,47.01
2023-04-08T15:58:45.585Z,45.42
2023-04-08T16:01:13.130Z,44.69
2023-04-08T16:03:40.985Z,45.53
2023-04-08T16:06:08.776Z,46.85
2023-04-08T16:08:37.053Z,47.39
2023-04-08T16:11:07.898Z,50.91
2023-04-08T16:13:35.371Z,51.90
2023-04-08T16:16:03.648Z,52.48
2023-04-08T16:18:31.346Z,52.66
2023-04-08T16:20:58.644Z,52.94
2023-04-08T16:23:25.793Z,53.54
2023-04-08T16:25:52.894Z,52.21
2023-04-08T16:28:20.013Z,52.49
2023-04-08T16:30:47.833Z,48.69
2023-04-08T16:33:15.961Z,49.54
2023-04-08T16:35:43.047Z,49.44
2023-04-08T16:38:10.198Z,49.61
2023-04-08T16:40:39.109Z,51.93
2023-04-08T16:43:06.646Z,52.91
2023-04-08T16:45:33.819Z,53.50
2023-04-08T16:48:01.056Z,51.42
2023-04-08T16:50:28.616Z,52.30
2023-04-08T16:52:55.960Z,52.57
2023-04-08T16:55:24.274Z,53.63
2023-04-08T16:57:51.445Z,52.77
2023-04-08T17:00:20.995Z,55.62
2023-04-08T17:02:48.446Z,56.27
2023-04-08T17:05:16.147Z,53.71
2023-04-08T17:07:43.236Z,54.02
2023-04-08T17:10:10.786Z,53.70
2023-04-08T17:12:37.856Z,52.14
2023-04-08T17:15:05.925Z,52.08
2023-04-08T17:17:33.091Z,54.38
2023-04-08T17:20:00.293Z,53.76
2023-04-08T17:22:27.400Z,54.52
2023-04-08T17:24:54.651Z,55.65
2023-04-08T17:27:22.165Z,54.54
2023-04-08T17:29:57.444Z,56.43
2023-04-08T17:32:25.704Z,54.05
2023-04-08T17:34:53.651Z,54.23
2023-04-08T17:37:21.874Z,55.56
2023-04-08T17:39:48.985Z,58.36
2023-04-08T17:42:16.887Z,55.78
2023-04-08T17:44:44.734Z,58.65
2023-04-08T17:47:11.834Z,58.66
2023-04-08T17:49:40.184Z,57.81
2023-04-08T17:52:07.328Z,58.41
2023-04-08T17:54:34.677Z,60.20
2023-04-08T17:57:01.841Z,59.33
2023-04-08T17:59:29.000Z,56.79
2023-04-08T18:01:56.172Z,55.63
2023-04-08T18:04:23.733Z,58.50
2023-04-08T18:06:50.874Z,56.60
2023-04-08T18:09:17.904Z,56.44
2023-04-08T18:11:44.993Z,55.79
2023-04-08T18:14:13.286Z,57.45
2023-04-08T18:16:40.433Z,56.32
2023-04-08T18:19:07.524Z,57.83
2023-04-08T18:21:34.590Z,60.74
2023-04-08T18:24:01.859Z,60.47
2023-04-08T18:26:28.990Z,58.60
2023-04-08T18:28:56.109Z,58.25
2023-04-08T18:31:24.267Z,56.74
2023-04-08T18:33:53.912Z,59.18
2023-04-08T18:36:22.363Z,57.94
2023-04-08T18:38:49.492Z,59.23
2023-04-08T18:41:17.702Z,55.66
2023-04-08T18:43:44.724Z,54.11
2023-04-08T18:46:11.858Z,55.79
2023-04-08T18:48:39.003Z,54.11
2023-04-08T18:51:06.329Z,53.97
2023-04-08T18:53:33.606Z,54.41
2023-04-08T18:56:00.778Z,54.00
2023-04-08T18:58:27.883Z,53.88
2023-04-08T19:00:56.387Z,54.13
2023-04-08T19:03:24.360Z,53.42
2023-04-08T19:05:51.583Z,53.68
2023-04-08T19:08:18.702Z,52.07
2023-04-08T19:10:45.773Z,52.93
2023-04-08T19:13:12.838Z,52.41
2023-04-08T19:15:39.904Z,52.71
2023-04-08T19:18:07.149Z,54.51
2023-04-08T19:20:34.568Z,55.68
2023-04-08T19:23:01.617Z,55.54
2023-04-08T19:25:28.728Z,54.67
2023-04-08T19:27:56.112Z,54.33
2023-04-08T19:30:23.202Z,54.04
2023-04-08T19:32:50.365Z,54.43
2023-04-08T19:35:17.618Z,53.75
2023-04-08T19:37:44.677Z,53.76
2023-04-08T19:40:11.994Z,53.62
2023-04-08T19:42:39.085Z,52.50
2023-04-08T19:45:06.989Z,52.06
2023-04-08T19:47:36.160Z,52.85
2023-04-08T19:50:03.430Z,53.58
2023-04-08T19:52:32.187Z,53.45
2023-04-08T19:54:59.252Z,53.26
2023-04-08T19:57:26.360Z,53.95
2023-04-08T19:59:54.269Z,53.29
2023-04-08T20:02:22.066Z,53.02
2023-04-08T20:04:52.338Z,52.90
2023-04-08T20:07:19.407Z,52.25
2023-04-08T20:09:48.463Z,51.83
2023-04-08T20:12:15.590Z,53.98
2023-04-08T20:14:44.035Z,53.35
2023-04-08T20:17:12.325Z,52.69
2023-04-08T20:19:40.205Z,51.44
2023-04-08T20:22:07.335Z,52.17
2023-04-08T20:24:34.567Z,52.97
2023-04-08T20:27:01.658Z,52.09
2023-04-08T20:29:30.981Z,53.23
2023-04-08T20:31:58.684Z,53.86
2023-04-08T20:34:26.249Z,56.39
2023-04-08T20:36:53.344Z,57.51
2023-04-08T20:39:20.507Z,59.43
2023-04-08T20:41:47.652Z,61.72
2023-04-08T20:44:14.696Z,60.39
2023-04-08T20:46:44.464Z,60.01
2023-04-08T20:49:13.181Z,59.40
2023-04-08T20:51:42.030Z,59.02
2023-04-08T20:54:09.076Z,58.82
2023-04-08T20:56:36.415Z,58.70
2023-04-08T20:59:03.459Z,58.42
2023-04-08T21:01:30.983Z,57.68
2023-04-08T21:03:58.329Z,58.20
2023-04-08T21:06:27.532Z,58.50
2023-04-08T21:08:54.700Z,59.28
2023-04-08T21:11:22.059Z,58.85
2023-04-08T21:13:49.409Z,59.42
2023-04-08T21:16:16.671Z,57.28
2023-04-08T21:18:43.902Z,56.39
2023-04-08T21:21:14.197Z,56.41
2023-04-08T21:23:41.413Z,58.50
2023-04-08T21:26:14.104Z,59.91
2023-04-08T21:28:41.411Z,62.82
2023-04-08T21:31:13.313Z,64.27
2023-04-08T21:33:40.928Z,63.99
2023-04-08T21:36:08.209Z,62.94
2023-04-08T21:38:35.961Z,61.39
2023-04-08T21:41:03.105Z,60.40
2023-04-08T21:43:30.396Z,61.13
2023-04-08T21:45:57.627Z,59.99
2023-04-08T21:48:24.764Z,60.66
2023-04-08T21:50:51.928Z,60.25
2023-04-08T21:53:20.534Z,59.49
2023-04-08T21:55:48.021Z,58.90
2023-04-08T21:58:16.473Z,57.27
2023-04-08T22:00:43.620Z,57.09
2023-04-08T22:03:10.917Z,55.44
2023-04-08T22:05:38.130Z,55.65
2023-04-08T22:08:05.601Z,57.91
2023-04-08T22:10:32.632Z,59.76
2023-04-08T22:12:59.697Z,62.63
2023-04-08T22:15:26.840Z,66.67
2023-04-08T22:17:53.995Z,67.37
2023-04-08T22:20:21.244Z,65.63
2023-04-08T22:22:48.264Z,64.82
2023-04-08T22:25:15.369Z,63.49
2023-04-08T22:27:42.403Z,63.73
2023-04-08T22:30:10.485Z,62.29
2023-04-08T22:32:37.656Z,63.68
2023-04-08T22:35:05.753Z,67.07
2023-04-08T22:37:33.145Z,69.36
2023-04-08T22:40:01.046Z,69.74
2023-04-08T22:42:28.309Z,70.27
2023-04-08T22:44:55.753Z,70.93
2023-04-08T22:47:22.959Z,70.45
2023-04-08T22:49:50.347Z,70.95
2023-04-08T22:52:17.450Z,70.09
2023-04-08T22:54:44.579Z,69.47
2023-04-08T22:57:11.691Z,70.91
2023-04-08T22:59:38.763Z,71.79
2023-04-08T23:02:05.915Z,71.37
2023-04-08T23:04:36.032Z,69.88
2023-04-08T23:07:03.109Z,65.67
2023-04-08T23:09:30.384Z,64.39
2023-04-08T23:11:58.169Z,63.23
2023-04-08T23:14:25.324Z,62.07
2023-04-08T23:16:52.498Z,62.54
2023-04-08T23:19:19.532Z,61.04
2023-04-08T23:21:46.630Z,62.70
2023-04-08T23:24:13.785Z,64.54
2023-04-08T23:26:41.275Z,65.24
2023-04-08T23:29:08.378Z,65.98
2023-04-08T23:31:35.604Z,65.24
2023-04-08T23:34:02.984Z,65.75
2023-04-08T23:36:31.022Z,67.86
2023-04-08T23:38:58.088Z,69.85
2023-04-08T23:41:25.469Z,71.84
2023-04-08T23:43:52.733Z,72.14
2023-04-08T23:46:19.820Z,71.32
2023-04-08T23:48:47.224Z,69.10
2023-04-08T23:51:14.292Z,67.42
2023-04-08T23:53:41.598Z,71.48
2023-04-08T23:56:10.365Z,69.85
2023-04-08T23:58:39.652Z,68.88
